Asuncion Guarany, Paraguay

6:55 PM PYST on October 23, 2014 (GMT -0300)
Guarani International | Change Station
CLOSE
Current Station
Airport
Location: Ciudad del Este,
Elevation: 2785 ft
Nearby Weather Stations

Elev 2785 ft 25.46 °S, 54.84 °W | Updated 55 minutes ago

Mostly Cloudy
Mostly Cloudy
88 °F
Feels Like 87 °F
N
12
Wind Variable Wind from ESE

Today
High -- | Low -- °F
--% Chance of Precip.
Yesterday
High -- | Low -- °F
Precip. -- in
5:57 AM 6:49 PM
Waning Crescent, 0% visible
Pressure 29.86 in
Visibility 6.2 miles
Clouds Few 3300 ft
Mostly Cloudy 20000 ft
Heat Index 87 °F
Dew Point 59 °F
Humidity 38%
Rainfall 0.00 in
Snow Depth Not available.
UV 0 out of 12
Pollen Not available.
Air Quality Not available.
Flu Activity Not available.
METAR SGES 232100Z 11010KT 9999 FEW033 BKN200 31/15 Q1011

More Conditions Fewer Conditions

Pressure 29.86 in
Visibility 6.2 miles
Clouds Few 3300 ft
Mostly Cloudy 20000 ft
Heat Index 87 °F
Dew Point 59 °F
Humidity 38%
Rainfall 0.00 in
Snow Depth Not available.
UV 0 out of 12
Pollen Not available.
Air Quality Not available.
Flu Activity Not available.
METAR SGES 232100Z 11010KT 9999 FEW033 BKN200 31/15 Q1011

More Conditions Fewer Conditions

10-Day Weather Forecast

Almanac

Astronomy

Oct. 23, 2014 Rise Set
Actual Time 5:57 AM PYST 6:49 PM PYST
Civil Twilight 5:34 AM PYST 7:13 PM PYST
Nautical Twilight 5:06 AM PYST 7:41 PM PYST
Astronomical Twilight 4:38 AM PYST 8:09 PM PYST
Moon 5:43 AM PYST 6:44 PM PYST
Length of Visible Light 13h 39m
Length of Day
12h 52m
Tomorrow will be 1m 24s longer.
Waning Crescent, 0% of the Moon is Illuminated
Today
Waning Crescent
Oct 23
New
Oct 30
First Quarter
Nov 6
Full
Nov 14
Last Quarter

Today's Extremes

Country Highs Country Lows

Community

WunderPhotos

Upload Photos

1,764,381 photos uploaded!

WunderBlogs® & News

Nearby

Snow Depth

Not available.

Earthquake Activity

City Distance Mag. Time & Date
No recent earthquake activity has been reported nearby.
Minimum magnitude displayed is 2.5.

Coastal Water Temperatures

Place Temperature
No Stations Reporting

Nearby Weather Stations